sensor_id;sensor_type;location;lat;lon;timestamp;P1;durP1;ratioP1;P2;durP2;ratioP2
47824;SDS011;33589;48.242;14.676;2023-10-19T00:01:13;20.07;;;16.37;;
47824;SDS011;33589;48.242;14.676;2023-10-19T00:03:40;21.80;;;17.23;;
47824;SDS011;33589;48.242;14.676;2023-10-19T00:06:06;21.40;;;17.13;;
47824;SDS011;33589;48.242;14.676;2023-10-19T00:08:32;20.80;;;16.63;;
47824;SDS011;33589;48.242;14.676;2023-10-19T00:11:07;28.70;;;17.23;;
47824;SDS011;33589;48.242;14.676;2023-10-19T00:13:37;24.40;;;18.07;;
47824;SDS011;33589;48.242;14.676;2023-10-19T00:16:05;22.83;;;17.33;;
47824;SDS011;33589;48.242;14.676;2023-10-19T00:18:42;23.27;;;16.47;;
47824;SDS011;33589;48.242;14.676;2023-10-19T00:21:08;22.13;;;17.37;;
47824;SDS011;33589;48.242;14.676;2023-10-19T00:23:51;24.67;;;17.67;;
47824;SDS011;33589;48.242;14.676;2023-10-19T00:26:22;23.00;;;17.90;;
47824;SDS011;33589;48.242;14.676;2023-10-19T00:28:54;27.10;;;19.00;;
47824;SDS011;33589;48.242;14.676;2023-10-19T00:31:23;35.30;;;19.87;;
47824;SDS011;33589;48.242;14.676;2023-10-19T00:33:50;25.43;;;18.03;;
47824;SDS011;33589;48.242;14.676;2023-10-19T00:36:17;23.70;;;18.37;;
47824;SDS011;33589;48.242;14.676;2023-10-19T00:38:45;22.40;;;17.87;;
47824;SDS011;33589;48.242;14.676;2023-10-19T00:41:14;26.40;;;18.77;;
47824;SDS011;33589;48.242;14.676;2023-10-19T00:43:47;21.73;;;17.67;;
47824;SDS011;33589;48.242;14.676;2023-10-19T00:46:27;24.80;;;18.00;;
47824;SDS011;33589;48.242;14.676;2023-10-19T00:48:59;26.73;;;19.23;;
47824;SDS011;33589;48.242;14.676;2023-10-19T00:51:41;23.83;;;18.00;;
47824;SDS011;33589;48.242;14.676;2023-10-19T00:54:21;24.80;;;18.43;;
47824;SDS011;33589;48.242;14.676;2023-10-19T00:56:56;26.33;;;18.33;;
47824;SDS011;33589;48.242;14.676;2023-10-19T00:59:24;24.27;;;18.47;;
47824;SDS011;33589;48.242;14.676;2023-10-19T01:02:01;28.23;;;19.53;;
47824;SDS011;33589;48.242;14.676;2023-10-19T01:04:45;24.53;;;18.17;;
47824;SDS011;33589;48.242;14.676;2023-10-19T01:07:21;25.20;;;18.63;;
47824;SDS011;33589;48.242;14.676;2023-10-19T01:10:01;29.17;;;19.80;;
47824;SDS011;33589;48.242;14.676;2023-10-19T01:12:30;27.87;;;20.37;;
47824;SDS011;33589;48.242;14.676;2023-10-19T01:17:42;27.43;;;20.60;;
47824;SDS011;33589;48.242;14.676;2023-10-19T01:20:10;23.27;;;18.07;;
47824;SDS011;33589;48.242;14.676;2023-10-19T01:23:03;26.47;;;19.80;;
47824;SDS011;33589;48.242;14.676;2023-10-19T01:25:33;27.80;;;20.03;;
47824;SDS011;33589;48.242;14.676;2023-10-19T01:28:19;26.27;;;19.03;;
47824;SDS011;33589;48.242;14.676;2023-10-19T01:30:49;30.23;;;20.20;;
47824;SDS011;33589;48.242;14.676;2023-10-19T01:33:19;26.70;;;18.23;;
47824;SDS011;33589;48.242;14.676;2023-10-19T01:35:45;30.10;;;19.93;;
47824;SDS011;33589;48.242;14.676;2023-10-19T01:38:30;26.57;;;19.23;;
47824;SDS011;33589;48.242;14.676;2023-10-19T01:41:03;25.03;;;19.67;;
47824;SDS011;33589;48.242;14.676;2023-10-19T01:43:49;31.90;;;21.13;;
47824;SDS011;33589;48.242;14.676;2023-10-19T01:46:20;25.50;;;19.23;;
47824;SDS011;33589;48.242;14.676;2023-10-19T01:48:49;27.70;;;19.67;;
47824;SDS011;33589;48.242;14.676;2023-10-19T01:51:20;23.73;;;18.73;;
47824;SDS011;33589;48.242;14.676;2023-10-19T01:53:47;25.20;;;19.37;;
47824;SDS011;33589;48.242;14.676;2023-10-19T01:56:14;25.13;;;18.00;;
47824;SDS011;33589;48.242;14.676;2023-10-19T01:58:44;25.97;;;19.87;;
47824;SDS011;33589;48.242;14.676;2023-10-19T02:01:14;31.97;;;20.47;;
47824;SDS011;33589;48.242;14.676;2023-10-19T02:03:46;23.33;;;18.00;;
47824;SDS011;33589;48.242;14.676;2023-10-19T02:06:17;27.77;;;20.10;;
47824;SDS011;33589;48.242;14.676;2023-10-19T02:08:45;32.80;;;21.10;;
47824;SDS011;33589;48.242;14.676;2023-10-19T02:11:13;27.67;;;21.33;;
47824;SDS011;33589;48.242;14.676;2023-10-19T02:13:46;27.30;;;20.37;;
47824;SDS011;33589;48.242;14.676;2023-10-19T02:16:21;29.40;;;20.77;;
47824;SDS011;33589;48.242;14.676;2023-10-19T02:18:48;29.17;;;20.13;;
47824;SDS011;33589;48.242;14.676;2023-10-19T02:21:15;33.47;;;20.80;;
47824;SDS011;33589;48.242;14.676;2023-10-19T02:23:47;33.40;;;20.93;;
47824;SDS011;33589;48.242;14.676;2023-10-19T02:26:16;29.07;;;21.17;;
47824;SDS011;33589;48.242;14.676;2023-10-19T02:28:56;27.07;;;19.37;;
47824;SDS011;33589;48.242;14.676;2023-10-19T02:31:24;25.33;;;18.97;;
47824;SDS011;33589;48.242;14.676;2023-10-19T02:33:53;25.00;;;18.60;;
47824;SDS011;33589;48.242;14.676;2023-10-19T02:36:26;29.40;;;20.67;;
47824;SDS011;33589;48.242;14.676;2023-10-19T02:38:57;28.07;;;19.77;;
47824;SDS011;33589;48.242;14.676;2023-10-19T02:41:25;32.83;;;22.47;;
47824;SDS011;33589;48.242;14.676;2023-10-19T02:43:54;37.20;;;23.10;;
47824;SDS011;33589;48.242;14.676;2023-10-19T02:46:29;40.20;;;22.30;;
47824;SDS011;33589;48.242;14.676;2023-10-19T02:48:55;33.73;;;21.87;;
47824;SDS011;33589;48.242;14.676;2023-10-19T02:51:22;34.33;;;22.80;;
47824;SDS011;33589;48.242;14.676;2023-10-19T02:53:47;40.30;;;24.03;;
47824;SDS011;33589;48.242;14.676;2023-10-19T02:56:14;40.67;;;24.17;;
47824;SDS011;33589;48.242;14.676;2023-10-19T02:58:45;33.43;;;22.90;;
47824;SDS011;33589;48.242;14.676;2023-10-19T03:01:18;32.40;;;21.77;;
47824;SDS011;33589;48.242;14.676;2023-10-19T03:03:54;33.87;;;21.30;;
47824;SDS011;33589;48.242;14.676;2023-10-19T03:06:28;28.70;;;19.37;;
47824;SDS011;33589;48.242;14.676;2023-10-19T03:09:00;25.53;;;17.87;;
47824;SDS011;33589;48.242;14.676;2023-10-19T03:11:30;32.83;;;21.43;;
47824;SDS011;33589;48.242;14.676;2023-10-19T03:14:00;31.40;;;19.90;;
47824;SDS011;33589;48.242;14.676;2023-10-19T03:16:29;25.33;;;17.97;;
47824;SDS011;33589;48.242;14.676;2023-10-19T03:18:55;27.23;;;18.97;;
47824;SDS011;33589;48.242;14.676;2023-10-19T03:21:21;23.83;;;17.13;;
47824;SDS011;33589;48.242;14.676;2023-10-19T03:23:53;22.23;;;16.93;;
47824;SDS011;33589;48.242;14.676;2023-10-19T03:26:22;18.67;;;14.60;;
47824;SDS011;33589;48.242;14.676;2023-10-19T03:28:53;22.00;;;15.33;;
47824;SDS011;33589;48.242;14.676;2023-10-19T03:31:22;21.80;;;15.60;;
47824;SDS011;33589;48.242;14.676;2023-10-19T03:33:50;17.33;;;12.20;;
47824;SDS011;33589;48.242;14.676;2023-10-19T03:36:21;15.73;;;12.07;;
47824;SDS011;33589;48.242;14.676;2023-10-19T03:38:47;14.23;;;10.73;;
47824;SDS011;33589;48.242;14.676;2023-10-19T03:41:15;15.27;;;11.50;;
47824;SDS011;33589;48.242;14.676;2023-10-19T03:43:46;13.37;;;10.87;;
47824;SDS011;33589;48.242;14.676;2023-10-19T03:46:17;12.80;;;10.47;;
47824;SDS011;33589;48.242;14.676;2023-10-19T03:49:02;11.73;;;9.23;;
47824;SDS011;33589;48.242;14.676;2023-10-19T03:51:38;13.87;;;11.43;;
47824;SDS011;33589;48.242;14.676;2023-10-19T03:54:05;12.27;;;10.40;;
47824;SDS011;33589;48.242;14.676;2023-10-19T03:56:49;14.93;;;10.63;;
47824;SDS011;33589;48.242;14.676;2023-10-19T03:59:16;12.63;;;10.03;;
47824;SDS011;33589;48.242;14.676;2023-10-19T04:01:43;13.83;;;10.03;;
47824;SDS011;33589;48.242;14.676;2023-10-19T04:04:11;14.27;;;10.40;;
47824;SDS011;33589;48.242;14.676;2023-10-19T04:06:39;12.30;;;10.10;;
47824;SDS011;33589;48.242;14.676;2023-10-19T04:09:05;13.63;;;10.03;;
47824;SDS011;33589;48.242;14.676;2023-10-19T04:11:32;11.70;;;9.57;;
47824;SDS011;33589;48.242;14.676;2023-10-19T04:14:10;11.57;;;9.17;;
47824;SDS011;33589;48.242;14.676;2023-10-19T04:16:35;10.10;;;8.60;;
47824;SDS011;33589;48.242;14.676;2023-10-19T04:19:02;10.73;;;9.00;;
47824;SDS011;33589;48.242;14.676;2023-10-19T04:21:29;9.13;;;8.13;;
47824;SDS011;33589;48.242;14.676;2023-10-19T04:23:56;11.23;;;8.83;;
47824;SDS011;33589;48.242;14.676;2023-10-19T04:26:22;9.30;;;7.80;;
47824;SDS011;33589;48.242;14.676;2023-10-19T04:28:49;9.70;;;8.20;;
47824;SDS011;33589;48.242;14.676;2023-10-19T04:31:16;10.20;;;7.90;;
47824;SDS011;33589;48.242;14.676;2023-10-19T04:33:42;7.00;;;6.03;;
47824;SDS011;33589;48.242;14.676;2023-10-19T04:36:11;7.37;;;5.07;;
47824;SDS011;33589;48.242;14.676;2023-10-19T04:38:37;8.07;;;4.80;;
47824;SDS011;33589;48.242;14.676;2023-10-19T04:41:04;16.70;;;12.80;;
47824;SDS011;33589;48.242;14.676;2023-10-19T04:43:37;6.87;;;6.13;;
47824;SDS011;33589;48.242;14.676;2023-10-19T04:46:05;7.60;;;6.37;;
47824;SDS011;33589;48.242;14.676;2023-10-19T04:48:41;12.77;;;9.87;;
47824;SDS011;33589;48.242;14.676;2023-10-19T04:51:10;10.73;;;8.30;;
47824;SDS011;33589;48.242;14.676;2023-10-19T04:53:36;11.53;;;9.00;;
47824;SDS011;33589;48.242;14.676;2023-10-19T04:56:03;6.07;;;5.47;;
47824;SDS011;33589;48.242;14.676;2023-10-19T04:58:30;8.27;;;6.23;;
47824;SDS011;33589;48.242;14.676;2023-10-19T05:00:56;9.87;;;6.80;;
47824;SDS011;33589;48.242;14.676;2023-10-19T05:03:24;4.93;;;4.43;;
47824;SDS011;33589;48.242;14.676;2023-10-19T05:05:50;6.20;;;4.87;;
47824;SDS011;33589;48.242;14.676;2023-10-19T05:08:16;5.13;;;4.63;;
47824;SDS011;33589;48.242;14.676;2023-10-19T05:10:42;7.43;;;5.43;;
47824;SDS011;33589;48.242;14.676;2023-10-19T05:13:08;7.43;;;5.23;;
47824;SDS011;33589;48.242;14.676;2023-10-19T05:15:34;6.63;;;5.10;;
47824;SDS011;33589;48.242;14.676;2023-10-19T05:18:00;5.33;;;4.80;;
47824;SDS011;33589;48.242;14.676;2023-10-19T05:20:26;5.57;;;4.43;;
47824;SDS011;33589;48.242;14.676;2023-10-19T05:22:51;7.07;;;4.80;;
47824;SDS011;33589;48.242;14.676;2023-10-19T05:25:17;6.10;;;5.50;;
47824;SDS011;33589;48.242;14.676;2023-10-19T05:27:42;8.83;;;5.70;;
47824;SDS011;33589;48.242;14.676;2023-10-19T05:30:11;30.67;;;22.03;;
47824;SDS011;33589;48.242;14.676;2023-10-19T05:32:37;11.17;;;8.60;;
47824;SDS011;33589;48.242;14.676;2023-10-19T05:35:03;6.27;;;5.30;;
47824;SDS011;33589;48.242;14.676;2023-10-19T05:37:30;6.13;;;5.53;;
47824;SDS011;33589;48.242;14.676;2023-10-19T05:39:56;5.77;;;4.30;;
47824;SDS011;33589;48.242;14.676;2023-10-19T05:42:22;17.90;;;12.10;;
47824;SDS011;33589;48.242;14.676;2023-10-19T05:44:48;6.63;;;4.93;;
47824;SDS011;33589;48.242;14.676;2023-10-19T05:47:13;5.00;;;4.47;;
47824;SDS011;33589;48.242;14.676;2023-10-19T05:49:39;5.00;;;4.50;;
47824;SDS011;33589;48.242;14.676;2023-10-19T05:52:05;5.17;;;4.50;;
47824;SDS011;33589;48.242;14.676;2023-10-19T05:54:31;5.23;;;4.17;;
47824;SDS011;33589;48.242;14.676;2023-10-19T05:56:57;5.10;;;4.40;;
47824;SDS011;33589;48.242;14.676;2023-10-19T05:59:23;4.27;;;3.80;;
47824;SDS011;33589;48.242;14.676;2023-10-19T06:01:51;4.73;;;4.00;;
47824;SDS011;33589;48.242;14.676;2023-10-19T06:04:17;7.10;;;4.70;;
47824;SDS011;33589;48.242;14.676;2023-10-19T06:06:43;4.90;;;4.30;;
47824;SDS011;33589;48.242;14.676;2023-10-19T06:09:09;5.50;;;4.80;;
47824;SDS011;33589;48.242;14.676;2023-10-19T06:11:35;5.20;;;4.63;;
47824;SDS011;33589;48.242;14.676;2023-10-19T06:14:04;5.37;;;4.83;;
47824;SDS011;33589;48.242;14.676;2023-10-19T06:16:35;5.07;;;4.40;;
47824;SDS011;33589;48.242;14.676;2023-10-19T06:19:01;5.17;;;4.30;;
47824;SDS011;33589;48.242;14.676;2023-10-19T06:21:27;5.43;;;4.57;;
47824;SDS011;33589;48.242;14.676;2023-10-19T06:23:53;6.13;;;4.83;;
47824;SDS011;33589;48.242;14.676;2023-10-19T06:26:19;7.63;;;5.93;;
47824;SDS011;33589;48.242;14.676;2023-10-19T06:28:45;7.60;;;5.90;;
47824;SDS011;33589;48.242;14.676;2023-10-19T06:31:11;7.63;;;5.33;;
47824;SDS011;33589;48.242;14.676;2023-10-19T06:33:37;8.13;;;4.90;;
47824;SDS011;33589;48.242;14.676;2023-10-19T06:36:06;5.37;;;4.50;;
47824;SDS011;33589;48.242;14.676;2023-10-19T06:38:32;8.87;;;5.10;;
47824;SDS011;33589;48.242;14.676;2023-10-19T06:40:59;6.03;;;4.80;;
47824;SDS011;33589;48.242;14.676;2023-10-19T06:43:28;7.30;;;5.10;;
47824;SDS011;33589;48.242;14.676;2023-10-19T06:45:55;7.50;;;5.77;;
47824;SDS011;33589;48.242;14.676;2023-10-19T06:48:21;6.17;;;4.33;;
47824;SDS011;33589;48.242;14.676;2023-10-19T06:50:47;6.00;;;5.00;;
47824;SDS011;33589;48.242;14.676;2023-10-19T06:53:13;6.97;;;5.13;;
47824;SDS011;33589;48.242;14.676;2023-10-19T06:55:39;5.53;;;4.70;;
47824;SDS011;33589;48.242;14.676;2023-10-19T06:58:05;6.93;;;5.20;;
47824;SDS011;33589;48.242;14.676;2023-10-19T07:00:31;8.50;;;5.20;;
47824;SDS011;33589;48.242;14.676;2023-10-19T07:02:58;8.13;;;4.80;;
47824;SDS011;33589;48.242;14.676;2023-10-19T07:05:25;5.90;;;5.10;;
47824;SDS011;33589;48.242;14.676;2023-10-19T07:07:55;5.10;;;4.40;;
47824;SDS011;33589;48.242;14.676;2023-10-19T07:10:23;6.37;;;4.93;;
47824;SDS011;33589;48.242;14.676;2023-10-19T07:12:53;7.53;;;5.33;;
47824;SDS011;33589;48.242;14.676;2023-10-19T07:15:20;7.17;;;5.10;;
47824;SDS011;33589;48.242;14.676;2023-10-19T07:17:47;6.10;;;4.77;;
47824;SDS011;33589;48.242;14.676;2023-10-19T07:20:15;7.97;;;5.10;;
47824;SDS011;33589;48.242;14.676;2023-10-19T07:23:07;6.37;;;5.10;;
47824;SDS011;33589;48.242;14.676;2023-10-19T07:25:52;5.53;;;4.53;;
47824;SDS011;33589;48.242;14.676;2023-10-19T07:28:25;5.57;;;4.37;;
47824;SDS011;33589;48.242;14.676;2023-10-19T07:30:51;6.53;;;5.00;;
47824;SDS011;33589;48.242;14.676;2023-10-19T07:33:18;8.73;;;5.20;;
47824;SDS011;33589;48.242;14.676;2023-10-19T07:35:47;6.60;;;5.23;;
47824;SDS011;33589;48.242;14.676;2023-10-19T07:38:20;8.03;;;5.10;;
47824;SDS011;33589;48.242;14.676;2023-10-19T07:40:47;7.30;;;4.60;;
47824;SDS011;33589;48.242;14.676;2023-10-19T07:43:13;5.33;;;4.83;;
47824;SDS011;33589;48.242;14.676;2023-10-19T07:45:38;8.90;;;4.70;;
47824;SDS011;33589;48.242;14.676;2023-10-19T07:48:05;6.23;;;4.63;;
47824;SDS011;33589;48.242;14.676;2023-10-19T07:50:38;5.57;;;4.37;;
47824;SDS011;33589;48.242;14.676;2023-10-19T07:53:06;7.15;;;4.40;;
47824;SDS011;33589;48.242;14.676;2023-10-19T07:55:31;5.13;;;3.93;;
47824;SDS011;33589;48.242;14.676;2023-10-19T07:57:58;6.53;;;4.05;;
47824;SDS011;33589;48.242;14.676;2023-10-19T08:00:31;5.90;;;4.57;;
47824;SDS011;33589;48.242;14.676;2023-10-19T08:03:00;5.25;;;4.07;;
47824;SDS011;33589;48.242;14.676;2023-10-19T08:05:26;7.33;;;4.77;;
47824;SDS011;33589;48.242;14.676;2023-10-19T08:07:52;5.27;;;4.30;;
47824;SDS011;33589;48.242;14.676;2023-10-19T08:10:19;5.10;;;4.30;;
47824;SDS011;33589;48.242;14.676;2023-10-19T08:12:46;5.60;;;4.40;;
47824;SDS011;33589;48.242;14.676;2023-10-19T08:15:12;6.23;;;4.10;;
47824;SDS011;33589;48.242;14.676;2023-10-19T08:17:44;4.50;;;4.00;;
47824;SDS011;33589;48.242;14.676;2023-10-19T08:20:12;14.03;;;11.40;;
47824;SDS011;33589;48.242;14.676;2023-10-19T08:22:44;22.40;;;19.00;;
47824;SDS011;33589;48.242;14.676;2023-10-19T08:25:12;13.23;;;11.13;;
47824;SDS011;33589;48.242;14.676;2023-10-19T08:27:46;8.80;;;6.40;;
47824;SDS011;33589;48.242;14.676;2023-10-19T08:30:19;7.27;;;3.83;;
47824;SDS011;33589;48.242;14.676;2023-10-19T08:32:50;6.03;;;3.63;;
47824;SDS011;33589;48.242;14.676;2023-10-19T08:35:17;4.90;;;3.85;;
47824;SDS011;33589;48.242;14.676;2023-10-19T08:37:54;4.37;;;3.60;;
47824;SDS011;33589;48.242;14.676;2023-10-19T08:40:24;6.03;;;4.50;;
47824;SDS011;33589;48.242;14.676;2023-10-19T08:42:53;6.40;;;3.87;;
47824;SDS011;33589;48.242;14.676;2023-10-19T08:45:20;10.00;;;7.93;;
47824;SDS011;33589;48.242;14.676;2023-10-19T08:47:52;14.83;;;10.20;;
47824;SDS011;33589;48.242;14.676;2023-10-19T08:50:26;7.33;;;5.13;;
47824;SDS011;33589;48.242;14.676;2023-10-19T08:52:54;9.40;;;4.10;;
47824;SDS011;33589;48.242;14.676;2023-10-19T08:55:25;77.10;;;44.87;;
47824;SDS011;33589;48.242;14.676;2023-10-19T08:57:51;33.00;;;20.97;;
47824;SDS011;33589;48.242;14.676;2023-10-19T09:00:18;7.13;;;5.60;;
47824;SDS011;33589;48.242;14.676;2023-10-19T09:02:44;7.10;;;4.70;;
47824;SDS011;33589;48.242;14.676;2023-10-19T09:05:11;6.23;;;4.70;;
47824;SDS011;33589;48.242;14.676;2023-10-19T09:07:57;8.50;;;4.70;;
47824;SDS011;33589;48.242;14.676;2023-10-19T09:10:25;6.07;;;4.80;;
47824;SDS011;33589;48.242;14.676;2023-10-19T09:12:59;10.73;;;9.10;;
47824;SDS011;33589;48.242;14.676;2023-10-19T09:15:25;9.23;;;7.70;;
47824;SDS011;33589;48.242;14.676;2023-10-19T09:17:51;4.80;;;4.28;;
47824;SDS011;33589;48.242;14.676;2023-10-19T09:20:20;5.15;;;3.88;;
47824;SDS011;33589;48.242;14.676;2023-10-19T09:22:55;4.50;;;3.72;;
47824;SDS011;33589;48.242;14.676;2023-10-19T09:25:23;5.18;;;3.78;;
47824;SDS011;33589;48.242;14.676;2023-10-19T09:27:49;5.65;;;4.10;;
47824;SDS011;33589;48.242;14.676;2023-10-19T09:30:17;4.90;;;3.55;;
47824;SDS011;33589;48.242;14.676;2023-10-19T09:32:47;4.80;;;3.53;;
47824;SDS011;33589;48.242;14.676;2023-10-19T09:35:14;5.35;;;3.83;;
47824;SDS011;33589;48.242;14.676;2023-10-19T09:37:44;5.32;;;3.90;;
47824;SDS011;33589;48.242;14.676;2023-10-19T09:40:10;4.70;;;3.70;;
47824;SDS011;33589;48.242;14.676;2023-10-19T09:42:43;4.65;;;3.40;;
47824;SDS011;33589;48.242;14.676;2023-10-19T09:45:13;6.03;;;3.70;;
47824;SDS011;33589;48.242;14.676;2023-10-19T09:47:47;3.95;;;3.40;;
47824;SDS011;33589;48.242;14.676;2023-10-19T09:50:16;4.63;;;3.15;;
47824;SDS011;33589;48.242;14.676;2023-10-19T09:52:42;3.63;;;3.00;;
47824;SDS011;33589;48.242;14.676;2023-10-19T09:57:48;2.95;;;2.60;;
47824;SDS011;33589;48.242;14.676;2023-10-19T10:00:24;2.92;;;2.60;;
47824;SDS011;33589;48.242;14.676;2023-10-19T10:02:52;4.35;;;3.08;;
47824;SDS011;33589;48.242;14.676;2023-10-19T10:10:46;4.13;;;2.90;;
47824;SDS011;33589;48.242;14.676;2023-10-19T10:15:57;6.03;;;3.67;;
47824;SDS011;33589;48.242;14.676;2023-10-19T10:18:29;7.63;;;6.20;;
47824;SDS011;33589;48.242;14.676;2023-10-19T10:21:13;4.53;;;4.03;;
47824;SDS011;33589;48.242;14.676;2023-10-19T10:23:44;4.60;;;2.70;;
47824;SDS011;33589;48.242;14.676;2023-10-19T10:26:15;4.35;;;3.13;;
47824;SDS011;33589;48.242;14.676;2023-10-19T10:28:46;4.53;;;3.28;;
47824;SDS011;33589;48.242;14.676;2023-10-19T10:31:15;4.50;;;3.50;;
47824;SDS011;33589;48.242;14.676;2023-10-19T10:33:49;6.57;;;5.30;;
47824;SDS011;33589;48.242;14.676;2023-10-19T10:36:19;7.22;;;4.47;;
47824;SDS011;33589;48.242;14.676;2023-10-19T10:38:50;5.95;;;4.15;;
47824;SDS011;33589;48.242;14.676;2023-10-19T10:41:22;6.32;;;4.28;;
47824;SDS011;33589;48.242;14.676;2023-10-19T10:43:58;5.20;;;3.25;;
47824;SDS011;33589;48.242;14.676;2023-10-19T10:46:27;5.70;;;4.03;;
47824;SDS011;33589;48.242;14.676;2023-10-19T10:48:57;6.07;;;4.35;;
47824;SDS011;33589;48.242;14.676;2023-10-19T10:51:23;10.00;;;8.35;;
47824;SDS011;33589;48.242;14.676;2023-10-19T10:53:53;4.97;;;4.47;;
47824;SDS011;33589;48.242;14.676;2023-10-19T10:56:20;6.38;;;4.90;;
47824;SDS011;33589;48.242;14.676;2023-10-19T10:58:47;4.95;;;4.45;;
47824;SDS011;33589;48.242;14.676;2023-10-19T11:01:13;5.88;;;4.40;;
47824;SDS011;33589;48.242;14.676;2023-10-19T11:03:40;4.68;;;4.18;;
47824;SDS011;33589;48.242;14.676;2023-10-19T11:06:07;4.97;;;4.00;;
47824;SDS011;33589;48.242;14.676;2023-10-19T11:08:35;6.60;;;4.88;;
47824;SDS011;33589;48.242;14.676;2023-10-19T11:11:06;7.57;;;5.20;;
47824;SDS011;33589;48.242;14.676;2023-10-19T11:13:36;5.72;;;4.60;;
47824;SDS011;33589;48.242;14.676;2023-10-19T11:16:03;5.90;;;4.50;;
47824;SDS011;33589;48.242;14.676;2023-10-19T11:18:40;5.28;;;4.45;;
47824;SDS011;33589;48.242;14.676;2023-10-19T11:21:11;6.28;;;4.38;;
47824;SDS011;33589;48.242;14.676;2023-10-19T11:23:49;5.30;;;4.07;;
47824;SDS011;33589;48.242;14.676;2023-10-19T11:26:20;5.72;;;4.38;;
47824;SDS011;33589;48.242;14.676;2023-10-19T11:28:47;7.30;;;5.00;;
47824;SDS011;33589;48.242;14.676;2023-10-19T11:31:23;5.68;;;4.13;;
47824;SDS011;33589;48.242;14.676;2023-10-19T11:33:52;4.88;;;4.25;;
47824;SDS011;33589;48.242;14.676;2023-10-19T11:36:20;5.38;;;3.70;;
47824;SDS011;33589;48.242;14.676;2023-10-19T11:38:48;4.53;;;3.58;;
47824;SDS011;33589;48.242;14.676;2023-10-19T11:41:16;5.15;;;4.07;;
47824;SDS011;33589;48.242;14.676;2023-10-19T11:43:43;4.65;;;3.60;;
47824;SDS011;33589;48.242;14.676;2023-10-19T11:46:10;4.07;;;3.55;;
47824;SDS011;33589;48.242;14.676;2023-10-19T11:48:37;6.28;;;4.63;;
47824;SDS011;33589;48.242;14.676;2023-10-19T11:51:05;5.22;;;4.00;;
47824;SDS011;33589;48.242;14.676;2023-10-19T11:53:34;3.47;;;3.17;;
47824;SDS011;33589;48.242;14.676;2023-10-19T11:56:05;4.85;;;2.90;;
47824;SDS011;33589;48.242;14.676;2023-10-19T11:58:36;3.85;;;2.80;;
47824;SDS011;33589;48.242;14.676;2023-10-19T12:01:05;4.70;;;3.63;;
47824;SDS011;33589;48.242;14.676;2023-10-19T12:03:36;7.43;;;4.55;;
47824;SDS011;33589;48.242;14.676;2023-10-19T12:06:05;14.45;;;9.52;;
47824;SDS011;33589;48.242;14.676;2023-10-19T12:08:34;5.03;;;3.20;;
47824;SDS011;33589;48.242;14.676;2023-10-19T12:11:04;4.43;;;3.50;;
47824;SDS011;33589;48.242;14.676;2023-10-19T12:13:40;4.38;;;3.30;;
47824;SDS011;33589;48.242;14.676;2023-10-19T12:16:08;5.32;;;3.20;;
47824;SDS011;33589;48.242;14.676;2023-10-19T12:18:38;3.90;;;3.40;;
47824;SDS011;33589;48.242;14.676;2023-10-19T12:21:04;4.55;;;3.20;;
47824;SDS011;33589;48.242;14.676;2023-10-19T12:23:33;3.15;;;2.67;;
47824;SDS011;33589;48.242;14.676;2023-10-19T12:26:00;3.22;;;2.60;;
47824;SDS011;33589;48.242;14.676;2023-10-19T12:28:33;4.47;;;3.05;;
47824;SDS011;33589;48.242;14.676;2023-10-19T12:30:59;3.13;;;2.78;;
47824;SDS011;33589;48.242;14.676;2023-10-19T12:33:26;4.60;;;3.03;;
47824;SDS011;33589;48.242;14.676;2023-10-19T12:35:52;5.50;;;2.85;;
47824;SDS011;33589;48.242;14.676;2023-10-19T12:38:19;4.45;;;3.00;;
47824;SDS011;33589;48.242;14.676;2023-10-19T12:40:48;2.83;;;2.60;;
47824;SDS011;33589;48.242;14.676;2023-10-19T12:43:16;4.40;;;2.92;;
47824;SDS011;33589;48.242;14.676;2023-10-19T12:45:50;5.00;;;2.80;;
47824;SDS011;33589;48.242;14.676;2023-10-19T12:48:18;3.47;;;2.88;;
47824;SDS011;33589;48.242;14.676;2023-10-19T12:50:46;3.67;;;2.95;;
47824;SDS011;33589;48.242;14.676;2023-10-19T12:53:11;4.93;;;2.80;;
47824;SDS011;33589;48.242;14.676;2023-10-19T12:55:39;3.85;;;2.80;;
47824;SDS011;33589;48.242;14.676;2023-10-19T12:58:05;2.95;;;2.45;;
47824;SDS011;33589;48.242;14.676;2023-10-19T13:00:37;3.63;;;2.28;;
47824;SDS011;33589;48.242;14.676;2023-10-19T13:03:14;2.72;;;2.05;;
47824;SDS011;33589;48.242;14.676;2023-10-19T13:05:41;3.95;;;2.30;;
47824;SDS011;33589;48.242;14.676;2023-10-19T13:08:12;1.98;;;1.80;;
47824;SDS011;33589;48.242;14.676;2023-10-19T13:10:39;3.42;;;2.20;;
47824;SDS011;33589;48.242;14.676;2023-10-19T13:13:10;2.55;;;2.35;;
47824;SDS011;33589;48.242;14.676;2023-10-19T13:15:37;3.67;;;2.15;;
47824;SDS011;33589;48.242;14.676;2023-10-19T13:18:05;6.75;;;2.50;;
47824;SDS011;33589;48.242;14.676;2023-10-19T13:20:34;3.08;;;2.33;;
47824;SDS011;33589;48.242;14.676;2023-10-19T13:23:01;2.42;;;2.22;;
47824;SDS011;33589;48.242;14.676;2023-10-19T13:25:32;3.63;;;2.10;;
47824;SDS011;33589;48.242;14.676;2023-10-19T13:28:12;2.15;;;1.90;;
47824;SDS011;33589;48.242;14.676;2023-10-19T13:30:39;3.22;;;2.40;;
47824;SDS011;33589;48.242;14.676;2023-10-19T13:33:07;4.38;;;2.60;;
47824;SDS011;33589;48.242;14.676;2023-10-19T13:35:35;3.20;;;2.90;;
47824;SDS011;33589;48.242;14.676;2023-10-19T13:38:03;4.85;;;3.90;;
47824;SDS011;33589;48.242;14.676;2023-10-19T13:40:29;3.58;;;2.80;;
47824;SDS011;33589;48.242;14.676;2023-10-19T13:42:56;2.70;;;2.50;;
47824;SDS011;33589;48.242;14.676;2023-10-19T13:45:22;2.97;;;2.63;;
47824;SDS011;33589;48.242;14.676;2023-10-19T13:47:48;4.25;;;2.72;;
47824;SDS011;33589;48.242;14.676;2023-10-19T13:50:14;5.68;;;3.58;;
47824;SDS011;33589;48.242;14.676;2023-10-19T13:52:40;4.18;;;3.15;;
47824;SDS011;33589;48.242;14.676;2023-10-19T13:55:06;4.40;;;3.10;;
47824;SDS011;33589;48.242;14.676;2023-10-19T13:57:33;3.28;;;2.80;;
47824;SDS011;33589;48.242;14.676;2023-10-19T13:59:59;2.90;;;2.60;;
47824;SDS011;33589;48.242;14.676;2023-10-19T14:02:26;4.57;;;3.60;;
47824;SDS011;33589;48.242;14.676;2023-10-19T14:04:51;11.85;;;9.18;;
47824;SDS011;33589;48.242;14.676;2023-10-19T14:07:18;11.38;;;9.45;;
47824;SDS011;33589;48.242;14.676;2023-10-19T14:09:45;6.15;;;5.18;;
47824;SDS011;33589;48.242;14.676;2023-10-19T14:12:11;7.45;;;3.97;;
47824;SDS011;33589;48.242;14.676;2023-10-19T14:14:36;4.15;;;3.63;;
47824;SDS011;33589;48.242;14.676;2023-10-19T14:17:02;13.27;;;8.60;;
47824;SDS011;33589;48.242;14.676;2023-10-19T14:19:28;9.68;;;5.78;;
47824;SDS011;33589;48.242;14.676;2023-10-19T14:21:54;3.90;;;3.50;;
47824;SDS011;33589;48.242;14.676;2023-10-19T14:24:19;3.92;;;3.53;;
47824;SDS011;33589;48.242;14.676;2023-10-19T14:26:48;3.92;;;3.45;;
47824;SDS011;33589;48.242;14.676;2023-10-19T14:29:13;3.72;;;3.42;;
47824;SDS011;33589;48.242;14.676;2023-10-19T14:31:39;6.07;;;3.85;;
47824;SDS011;33589;48.242;14.676;2023-10-19T14:34:06;4.18;;;3.70;;
47824;SDS011;33589;48.242;14.676;2023-10-19T14:36:33;9.07;;;6.18;;
47824;SDS011;33589;48.242;14.676;2023-10-19T14:38:59;3.35;;;3.03;;
47824;SDS011;33589;48.242;14.676;2023-10-19T14:41:24;3.22;;;2.92;;
47824;SDS011;33589;48.242;14.676;2023-10-19T14:43:50;3.45;;;3.08;;
47824;SDS011;33589;48.242;14.676;2023-10-19T14:46:16;4.90;;;3.35;;
47824;SDS011;33589;48.242;14.676;2023-10-19T14:48:41;4.70;;;3.38;;
47824;SDS011;33589;48.242;14.676;2023-10-19T14:51:07;6.10;;;3.60;;